AFL2345 EDDC-UUEE
Flight info
| Callsign | AFL2345 |
|---|---|
| Flight time | 2h 9m |
| Altitude | 35000 |
| Route | HDO9E HDO T78 LAGAR N871 MULZA N869 GORAT N869 RATIN L999 AGLAN M864 DIPOP DIPOP3E |
| Aircraft | A320/M-SDE3FGHIRWY/LB1 |
Departure
| Time | 2026-05-05 19:45 |
|---|---|
| Airport | Dresden Airport (EDDC) |
Arrival
| Time | 2026-05-05 21:54 |
|---|---|
| Airport | Sheremetyevo International Airport (UUEE) |
| Time | Latitude | Longitude | Altitude | Speed | Heading |
|---|---|---|---|---|---|
| 2026-05-05 19:16 | 51.12627 | 13.76542 | 711 ft | 0 kts | 221° |
| 2026-05-05 19:35 | 51.12636 | 13.76555 | 726 ft | 3 kts | 223° |
| 2026-05-05 19:35 | 51.12651 | 13.76577 | 711 ft | 3 kts | 227° |
| 2026-05-05 19:35 | 51.12662 | 13.76597 | 710 ft | 3 kts | 232° |
| 2026-05-05 19:36 | 51.12671 | 13.76616 | 712 ft | 3 kts | 240° |
| 2026-05-05 19:36 | 51.12679 | 13.76644 | 715 ft | 3 kts | 267° |
| 2026-05-05 19:36 | 51.12677 | 13.76666 | 715 ft | 1 kts | 311° |
| 2026-05-05 19:36 | 51.12674 | 13.76672 | 715 ft | 0 kts | 311° |
| 2026-05-05 19:38 | 51.12677 | 13.76666 | 711 ft | 5 kts | 311° |
| 2026-05-05 19:38 | 51.12702 | 13.76621 | 712 ft | 5 kts | 311° |
| 2026-05-05 19:39 | 51.12740 | 13.76553 | 714 ft | 14 kts | 311° |
| 2026-05-05 19:39 | 51.12787 | 13.76465 | 712 ft | 7 kts | 303° |
| 2026-05-05 19:39 | 51.12769 | 13.76364 | 713 ft | 10 kts | 225° |
| 2026-05-05 19:39 | 51.12708 | 13.76276 | 715 ft | 15 kts | 221° |
| 2026-05-05 19:40 | 51.12618 | 13.76154 | 713 ft | 18 kts | 220° |
| 2026-05-05 19:40 | 51.12529 | 13.76033 | 713 ft | 16 kts | 221° |
| 2026-05-05 19:40 | 51.12441 | 13.75912 | 714 ft | 16 kts | 221° |
| 2026-05-05 19:40 | 51.12378 | 13.75818 | 713 ft | 6 kts | 235° |
| 2026-05-05 19:41 | 51.12372 | 13.75767 | 712 ft | 4 kts | 274° |
| 2026-05-05 19:41 | 51.12378 | 13.75731 | 711 ft | 3 kts | 287° |
| 2026-05-05 19:41 | 51.12384 | 13.75709 | 715 ft | 2 kts | 291° |
| 2026-05-05 19:41 | 51.12386 | 13.75697 | 714 ft | 1 kts | 291° |
| 2026-05-05 19:42 | 51.12388 | 13.75691 | 712 ft | 3 kts | 291° |
| 2026-05-05 19:42 | 51.12396 | 13.75659 | 714 ft | 3 kts | 292° |
| 2026-05-05 19:42 | 51.12402 | 13.75636 | 713 ft | 2 kts | 292° |
| 2026-05-05 19:42 | 51.12412 | 13.75603 | 714 ft | 5 kts | 298° |
| 2026-05-05 19:43 | 51.12429 | 13.75566 | 716 ft | 4 kts | 309° |
| 2026-05-05 19:43 | 51.12451 | 13.75530 | 716 ft | 6 kts | 321° |
| 2026-05-05 19:43 | 51.12479 | 13.75515 | 712 ft | 4 kts | 355° |
| 2026-05-05 19:43 | 51.12507 | 13.75530 | 712 ft | 5 kts | 29° |
| 2026-05-05 19:44 | 51.12532 | 13.75560 | 715 ft | 8 kts | 40° |
| 2026-05-05 19:44 | 51.12615 | 13.75673 | 714 ft | 40 kts | 40° |
| 2026-05-05 19:44 | 51.13011 | 13.76218 | 714 ft | 107 kts | 41° |
| 2026-05-05 19:44 | 51.13710 | 13.77174 | 781 ft | 150 kts | 40° |
| 2026-05-05 19:45 | 51.14519 | 13.78279 | 1323 ft | 154 kts | 42° |
| 2026-05-05 19:45 | 51.15308 | 13.79405 | 1985 ft | 152 kts | 43° |
| 2026-05-05 19:45 | 51.16109 | 13.80530 | 2582 ft | 156 kts | 44° |
| 2026-05-05 19:45 | 51.16976 | 13.81744 | 2888 ft | 179 kts | 43° |
| 2026-05-05 19:46 | 51.17978 | 13.83136 | 3213 ft | 202 kts | 42° |
| 2026-05-05 19:46 | 51.19100 | 13.84688 | 3567 ft | 226 kts | 43° |
| 2026-05-05 19:46 | 51.20063 | 13.86800 | 3947 ft | 247 kts | 75° |
| 2026-05-05 19:46 | 51.20202 | 13.89580 | 4607 ft | 257 kts | 95° |
| 2026-05-05 19:47 | 51.19863 | 13.92397 | 5385 ft | 263 kts | 115° |
| 2026-05-05 19:47 | 51.18735 | 13.94690 | 6195 ft | 267 kts | 140° |
| 2026-05-05 19:47 | 51.17356 | 13.96645 | 6994 ft | 270 kts | 137° |
| 2026-05-05 19:47 | 51.16007 | 13.98755 | 7828 ft | 273 kts | 135° |
| 2026-05-05 19:48 | 51.14678 | 14.00938 | 8666 ft | 276 kts | 135° |
| 2026-05-05 19:48 | 51.13341 | 14.03172 | 9500 ft | 279 kts | 135° |
| 2026-05-05 19:48 | 51.11987 | 14.05434 | 10191 ft | 287 kts | 135° |
| 2026-05-05 19:48 | 51.10547 | 14.07828 | 10441 ft | 311 kts | 135° |
| 2026-05-05 19:49 | 51.08994 | 14.10399 | 10627 ft | 334 kts | 135° |
| 2026-05-05 19:49 | 51.07332 | 14.13139 | 10931 ft | 350 kts | 135° |
| 2026-05-05 19:49 | 51.05615 | 14.15967 | 11540 ft | 357 kts | 135° |
| 2026-05-05 19:49 | 51.03894 | 14.18798 | 12224 ft | 361 kts | 136° |
| 2026-05-05 19:50 | 51.02132 | 14.21691 | 12927 ft | 364 kts | 136° |
| 2026-05-05 19:50 | 51.00377 | 14.24561 | 13597 ft | 368 kts | 136° |
| 2026-05-05 19:50 | 50.98575 | 14.27495 | 14185 ft | 372 kts | 136° |
| 2026-05-05 19:50 | 50.96761 | 14.30441 | 14779 ft | 376 kts | 136° |
| 2026-05-05 19:51 | 50.94954 | 14.33470 | 15347 ft | 380 kts | 132° |
| 2026-05-05 19:51 | 50.93443 | 14.36962 | 15918 ft | 387 kts | 121° |
| 2026-05-05 19:51 | 50.92368 | 14.40918 | 16474 ft | 394 kts | 109° |
| 2026-05-05 19:51 | 50.91747 | 14.45183 | 17015 ft | 399 kts | 103° |
| 2026-05-05 19:52 | 50.91204 | 14.49518 | 17557 ft | 403 kts | 103° |
| 2026-05-05 19:52 | 50.90645 | 14.53840 | 18073 ft | 406 kts | 104° |
| 2026-05-05 19:52 | 50.90065 | 14.58247 | 18531 ft | 410 kts | 104° |
| 2026-05-05 19:52 | 50.89474 | 14.62693 | 18985 ft | 413 kts | 104° |
| 2026-05-05 19:53 | 50.88878 | 14.67178 | 19442 ft | 416 kts | 104° |
| 2026-05-05 19:53 | 50.88281 | 14.71692 | 19887 ft | 420 kts | 104° |
| 2026-05-05 19:53 | 50.87685 | 14.76192 | 20316 ft | 423 kts | 104° |
| 2026-05-05 19:53 | 50.87083 | 14.80740 | 20741 ft | 426 kts | 104° |
| 2026-05-05 19:54 | 50.86470 | 14.85383 | 21183 ft | 429 kts | 104° |
| 2026-05-05 19:54 | 50.85857 | 14.90035 | 21608 ft | 432 kts | 104° |
| 2026-05-05 19:54 | 50.85234 | 14.94722 | 22043 ft | 435 kts | 104° |
| 2026-05-05 19:54 | 50.84606 | 14.99416 | 22465 ft | 438 kts | 104° |
| 2026-05-05 19:55 | 50.83969 | 15.04148 | 22879 ft | 441 kts | 104° |
| 2026-05-05 19:55 | 50.83324 | 15.08913 | 23277 ft | 444 kts | 104° |
| 2026-05-05 19:55 | 50.82678 | 15.13665 | 23610 ft | 447 kts | 104° |
| 2026-05-05 19:55 | 50.82020 | 15.18493 | 23947 ft | 449 kts | 105° |
| 2026-05-05 19:56 | 50.81357 | 15.23359 | 24298 ft | 452 kts | 104° |
| 2026-05-05 19:56 | 50.80704 | 15.28200 | 24641 ft | 454 kts | 103° |
| 2026-05-05 19:56 | 50.80357 | 15.33136 | 24967 ft | 459 kts | 93° |
| 2026-05-05 19:56 | 50.80536 | 15.38203 | 25291 ft | 464 kts | 83° |
| 2026-05-05 19:57 | 50.81265 | 15.43235 | 25623 ft | 469 kts | 73° |
| 2026-05-05 19:57 | 50.82454 | 15.48080 | 25933 ft | 472 kts | 69° |
| 2026-05-05 19:57 | 50.83679 | 15.52824 | 26236 ft | 474 kts | 69° |
| 2026-05-05 19:57 | 50.84925 | 15.57682 | 26537 ft | 476 kts | 69° |
| 2026-05-05 19:58 | 50.86171 | 15.62557 | 26848 ft | 478 kts | 69° |
| 2026-05-05 19:58 | 50.87420 | 15.67467 | 27129 ft | 480 kts | 69° |
| 2026-05-05 19:58 | 50.88650 | 15.72327 | 27411 ft | 482 kts | 69° |
| 2026-05-05 19:58 | 50.89898 | 15.77261 | 27700 ft | 483 kts | 69° |
| 2026-05-05 19:59 | 50.91156 | 15.82223 | 27987 ft | 485 kts | 69° |
| 2026-05-05 19:59 | 50.92413 | 15.87189 | 28381 ft | 484 kts | 69° |
| 2026-05-05 19:59 | 50.93662 | 15.92142 | 28810 ft | 483 kts | 69° |
| 2026-05-05 19:59 | 50.94903 | 15.97086 | 29224 ft | 482 kts | 69° |
| 2026-05-05 20:00 | 50.96140 | 16.02031 | 29638 ft | 481 kts | 69° |
| 2026-05-05 20:00 | 50.97374 | 16.06972 | 30022 ft | 480 kts | 69° |
| 2026-05-05 20:00 | 50.98589 | 16.11840 | 30366 ft | 479 kts | 69° |
| 2026-05-05 20:00 | 50.99816 | 16.16757 | 30711 ft | 478 kts | 69° |
| 2026-05-05 20:01 | 51.01039 | 16.21665 | 31059 ft | 476 kts | 69° |
| 2026-05-05 20:01 | 51.02258 | 16.26563 | 31405 ft | 475 kts | 69° |
| 2026-05-05 20:01 | 51.03473 | 16.31457 | 31753 ft | 474 kts | 69° |
| 2026-05-05 20:01 | 51.04664 | 16.36273 | 32095 ft | 473 kts | 69° |
| 2026-05-05 20:02 | 51.05865 | 16.41144 | 32427 ft | 472 kts | 69° |
| 2026-05-05 20:02 | 51.07063 | 16.46008 | 32770 ft | 471 kts | 69° |
| 2026-05-05 20:02 | 51.08253 | 16.50863 | 33109 ft | 470 kts | 69° |
| 2026-05-05 20:02 | 51.09443 | 16.55724 | 33429 ft | 470 kts | 69° |
| 2026-05-05 20:03 | 51.10629 | 16.60580 | 33762 ft | 469 kts | 69° |
| 2026-05-05 20:03 | 51.11794 | 16.65370 | 34047 ft | 468 kts | 69° |
| 2026-05-05 20:03 | 51.12970 | 16.70221 | 34325 ft | 468 kts | 69° |
| 2026-05-05 20:03 | 51.14147 | 16.75070 | 34581 ft | 468 kts | 69° |
| 2026-05-05 20:04 | 51.15319 | 16.79901 | 34739 ft | 468 kts | 69° |
| 2026-05-05 20:04 | 51.17654 | 16.89587 | 34783 ft | 471 kts | 69° |
| 2026-05-05 20:05 | 51.20002 | 16.99376 | 34784 ft | 471 kts | 69° |
| 2026-05-05 20:05 | 51.22339 | 17.09123 | 34784 ft | 470 kts | 69° |
| 2026-05-05 20:06 | 51.24665 | 17.18890 | 34781 ft | 470 kts | 69° |
| 2026-05-05 20:06 | 51.26968 | 17.28614 | 34780 ft | 470 kts | 69° |
| 2026-05-05 20:07 | 51.29261 | 17.38293 | 34783 ft | 470 kts | 69° |
| 2026-05-05 20:07 | 51.31575 | 17.48143 | 34779 ft | 469 kts | 70° |
| 2026-05-05 20:08 | 51.33858 | 17.57933 | 34778 ft | 469 kts | 70° |
| 2026-05-05 20:08 | 51.36123 | 17.67661 | 34779 ft | 469 kts | 70° |
| 2026-05-05 20:09 | 51.38395 | 17.77447 | 34778 ft | 469 kts | 70° |
| 2026-05-05 20:09 | 51.40664 | 17.87273 | 34774 ft | 469 kts | 70° |
| 2026-05-05 20:10 | 51.42925 | 17.97138 | 34777 ft | 470 kts | 70° |
| 2026-05-05 20:10 | 51.45160 | 18.06913 | 34776 ft | 470 kts | 70° |
| 2026-05-05 20:11 | 51.47407 | 18.16786 | 34775 ft | 470 kts | 70° |
| 2026-05-05 20:11 | 51.49644 | 18.26643 | 34778 ft | 470 kts | 70° |
| 2026-05-05 20:12 | 51.51857 | 18.36451 | 34778 ft | 470 kts | 70° |
| 2026-05-05 20:12 | 51.54071 | 18.46337 | 34779 ft | 470 kts | 70° |
| 2026-05-05 20:13 | 51.56290 | 18.56269 | 34781 ft | 470 kts | 70° |
| 2026-05-05 20:13 | 51.58479 | 18.66137 | 34779 ft | 470 kts | 70° |
| 2026-05-05 20:14 | 51.60675 | 18.76077 | 34780 ft | 471 kts | 70° |
| 2026-05-05 20:14 | 51.62854 | 18.85957 | 34783 ft | 471 kts | 70° |
| 2026-05-05 20:15 | 51.65044 | 18.95925 | 34789 ft | 471 kts | 70° |
| 2026-05-05 20:15 | 51.67202 | 19.05830 | 34792 ft | 471 kts | 70° |
| 2026-05-05 20:16 | 51.69366 | 19.15820 | 34798 ft | 471 kts | 70° |
| 2026-05-05 20:16 | 51.71507 | 19.25747 | 34803 ft | 471 kts | 70° |
| 2026-05-05 20:17 | 51.73652 | 19.35747 | 34804 ft | 471 kts | 70° |
| 2026-05-05 20:17 | 51.75785 | 19.45707 | 34803 ft | 471 kts | 70° |
| 2026-05-05 20:18 | 51.77915 | 19.55732 | 34801 ft | 471 kts | 70° |
| 2026-05-05 20:18 | 51.80303 | 19.65507 | 34798 ft | 469 kts | 60° |
| 2026-05-05 20:19 | 51.84013 | 19.74178 | 34792 ft | 468 kts | 51° |
| 2026-05-05 20:19 | 51.87940 | 19.82602 | 34786 ft | 468 kts | 51° |
| 2026-05-05 20:20 | 51.91856 | 19.91060 | 34783 ft | 469 kts | 51° |
| 2026-05-05 20:20 | 51.95742 | 19.99474 | 34784 ft | 469 kts | 51° |
| 2026-05-05 20:21 | 51.99660 | 20.07975 | 34784 ft | 469 kts | 51° |
| 2026-05-05 20:21 | 52.03551 | 20.16443 | 34786 ft | 469 kts | 51° |
| 2026-05-05 20:22 | 52.07464 | 20.24975 | 34788 ft | 469 kts | 51° |
| 2026-05-05 20:22 | 52.11334 | 20.33456 | 34785 ft | 469 kts | 52° |
| 2026-05-05 20:23 | 52.15228 | 20.42040 | 34790 ft | 469 kts | 52° |
| 2026-05-05 20:23 | 52.19094 | 20.50547 | 34795 ft | 469 kts | 51° |
| 2026-05-05 20:24 | 52.22982 | 20.59148 | 34800 ft | 469 kts | 52° |
| 2026-05-05 20:24 | 52.26600 | 20.67935 | 34800 ft | 471 kts | 62° |
| 2026-05-05 20:25 | 52.29489 | 20.77556 | 34799 ft | 471 kts | 62° |
| 2026-05-05 20:25 | 52.32378 | 20.87207 | 34779 ft | 472 kts | 62° |
| 2026-05-05 20:26 | 52.34771 | 20.95235 | 34779 ft | 472 kts | 62° |
| 2026-05-05 20:26 | 52.37653 | 21.04924 | 34770 ft | 472 kts | 62° |
| 2026-05-05 20:27 | 52.40512 | 21.14576 | 34785 ft | 473 kts | 63° |
| 2026-05-05 20:27 | 52.43379 | 21.24336 | 34780 ft | 473 kts | 63° |
| 2026-05-05 20:28 | 52.46197 | 21.33968 | 34778 ft | 474 kts | 63° |
| 2026-05-05 20:28 | 52.49070 | 21.43790 | 34777 ft | 474 kts | 63° |
| 2026-05-05 20:29 | 52.51919 | 21.53529 | 34789 ft | 475 kts | 63° |
| 2026-05-05 20:29 | 52.54764 | 21.63344 | 34779 ft | 475 kts | 63° |
| 2026-05-05 20:30 | 52.57587 | 21.73140 | 34777 ft | 475 kts | 63° |
| 2026-05-05 20:30 | 52.60420 | 21.82979 | 34785 ft | 476 kts | 63° |
| 2026-05-05 20:31 | 52.63250 | 21.92843 | 34802 ft | 476 kts | 63° |
| 2026-05-05 20:31 | 52.66048 | 22.02681 | 34796 ft | 476 kts | 63° |
| 2026-05-05 20:32 | 52.68868 | 22.12597 | 34787 ft | 477 kts | 63° |
| 2026-05-05 20:32 | 52.71665 | 22.22487 | 34794 ft | 477 kts | 63° |
| 2026-05-05 20:33 | 52.74467 | 22.32449 | 34792 ft | 478 kts | 63° |
| 2026-05-05 20:33 | 52.77247 | 22.42349 | 34793 ft | 478 kts | 64° |
| 2026-05-05 20:34 | 52.80086 | 22.52302 | 34794 ft | 478 kts | 63° |
| 2026-05-05 20:34 | 52.82969 | 22.62238 | 34796 ft | 478 kts | 63° |
| 2026-05-05 20:35 | 52.85821 | 22.72110 | 34799 ft | 478 kts | 63° |
| 2026-05-05 20:35 | 52.88677 | 22.82097 | 34803 ft | 479 kts | 63° |
| 2026-05-05 20:36 | 52.91515 | 22.92099 | 34806 ft | 479 kts | 64° |
| 2026-05-05 20:36 | 52.94306 | 23.02072 | 34820 ft | 479 kts | 64° |
| 2026-05-05 20:37 | 52.97062 | 23.12189 | 34814 ft | 480 kts | 65° |
| 2026-05-05 20:37 | 52.99791 | 23.22273 | 34826 ft | 480 kts | 64° |
| 2026-05-05 20:38 | 53.02540 | 23.32400 | 34818 ft | 480 kts | 64° |
| 2026-05-05 20:38 | 53.05283 | 23.42533 | 34828 ft | 481 kts | 65° |
| 2026-05-05 20:39 | 53.08013 | 23.52644 | 34829 ft | 481 kts | 65° |
| 2026-05-05 20:39 | 53.10733 | 23.62766 | 34829 ft | 481 kts | 65° |
| 2026-05-05 20:40 | 53.13451 | 23.72965 | 34819 ft | 481 kts | 65° |
| 2026-05-05 20:40 | 53.16145 | 23.83124 | 34834 ft | 481 kts | 65° |
| 2026-05-05 20:41 | 53.18853 | 23.93354 | 34831 ft | 481 kts | 65° |
| 2026-05-05 20:41 | 53.21601 | 24.03563 | 34830 ft | 481 kts | 64° |
| 2026-05-05 20:42 | 53.24337 | 24.13709 | 34823 ft | 481 kts | 65° |
| 2026-05-05 20:42 | 53.27059 | 24.23930 | 34828 ft | 481 kts | 65° |
| 2026-05-05 20:43 | 53.29773 | 24.34184 | 34823 ft | 482 kts | 65° |
| 2026-05-05 20:43 | 53.32483 | 24.44450 | 34827 ft | 482 kts | 65° |
| 2026-05-05 20:44 | 53.35171 | 24.54679 | 34828 ft | 482 kts | 65° |
| 2026-05-05 20:44 | 53.37868 | 24.64963 | 34832 ft | 483 kts | 65° |
| 2026-05-05 20:45 | 53.41898 | 24.80472 | 34837 ft | 483 kts | 65° |
| 2026-05-05 20:45 | 53.44565 | 24.90756 | 34838 ft | 483 kts | 65° |
| 2026-05-05 20:46 | 53.47235 | 25.01142 | 34843 ft | 484 kts | 66° |
| 2026-05-05 20:46 | 53.49895 | 25.11557 | 34846 ft | 484 kts | 65° |
| 2026-05-05 20:47 | 53.52540 | 25.21910 | 34845 ft | 484 kts | 66° |
| 2026-05-05 20:47 | 53.55177 | 25.32286 | 34852 ft | 484 kts | 66° |
| 2026-05-05 20:48 | 53.57824 | 25.42732 | 34842 ft | 484 kts | 66° |
| 2026-05-05 20:48 | 53.60426 | 25.53125 | 34850 ft | 484 kts | 66° |
| 2026-05-05 20:49 | 53.63044 | 25.63607 | 34851 ft | 484 kts | 66° |
| 2026-05-05 20:49 | 53.65642 | 25.74093 | 34849 ft | 484 kts | 66° |
| 2026-05-05 20:50 | 53.68247 | 25.84595 | 34858 ft | 484 kts | 66° |
| 2026-05-05 20:50 | 53.70827 | 25.95035 | 34852 ft | 484 kts | 66° |
| 2026-05-05 20:51 | 53.73404 | 26.05550 | 34849 ft | 484 kts | 67° |
| 2026-05-05 20:51 | 53.75971 | 26.16095 | 34851 ft | 484 kts | 67° |
| 2026-05-05 20:52 | 53.78522 | 26.26586 | 34854 ft | 484 kts | 67° |
| 2026-05-05 20:52 | 53.81087 | 26.37159 | 34860 ft | 485 kts | 67° |
| 2026-05-05 20:53 | 53.83614 | 26.47679 | 34863 ft | 485 kts | 67° |
| 2026-05-05 20:53 | 53.86152 | 26.58291 | 34869 ft | 485 kts | 67° |
| 2026-05-05 20:54 | 53.88679 | 26.68931 | 34874 ft | 485 kts | 67° |
| 2026-05-05 20:54 | 53.91805 | 26.79017 | 34871 ft | 483 kts | 58° |
| 2026-05-05 20:55 | 53.95166 | 26.88839 | 34873 ft | 483 kts | 59° |
| 2026-05-05 20:55 | 53.98512 | 26.98729 | 34873 ft | 484 kts | 59° |
| 2026-05-05 20:56 | 54.01863 | 27.08675 | 34876 ft | 484 kts | 59° |
| 2026-05-05 20:56 | 54.05216 | 27.18625 | 34879 ft | 483 kts | 59° |
| 2026-05-05 20:57 | 54.08532 | 27.28500 | 34876 ft | 483 kts | 59° |
| 2026-05-05 20:57 | 54.11630 | 27.38700 | 34877 ft | 484 kts | 65° |
| 2026-05-05 20:58 | 54.14433 | 27.49152 | 34876 ft | 484 kts | 65° |
| 2026-05-05 20:58 | 54.16757 | 27.57867 | 34879 ft | 484 kts | 65° |
| 2026-05-05 20:59 | 54.18475 | 27.64317 | 34880 ft | 484 kts | 65° |
| 2026-05-05 20:59 | 54.21268 | 27.74817 | 34880 ft | 484 kts | 65° |
| 2026-05-05 21:00 | 54.24029 | 27.85287 | 34887 ft | 484 kts | 65° |
| 2026-05-05 21:00 | 54.26780 | 27.95801 | 34891 ft | 484 kts | 65° |
| 2026-05-05 21:01 | 54.29531 | 28.06344 | 34885 ft | 483 kts | 65° |
| 2026-05-05 21:01 | 54.32260 | 28.16804 | 34883 ft | 483 kts | 65° |
| 2026-05-05 21:02 | 54.34986 | 28.27325 | 34871 ft | 482 kts | 65° |
| 2026-05-05 21:02 | 54.37687 | 28.37814 | 34862 ft | 483 kts | 66° |
| 2026-05-05 21:03 | 54.40398 | 28.48380 | 34863 ft | 483 kts | 66° |
| 2026-05-05 21:03 | 54.43097 | 28.58944 | 34864 ft | 483 kts | 66° |
| 2026-05-05 21:04 | 54.45772 | 28.69497 | 34863 ft | 483 kts | 66° |
| 2026-05-05 21:04 | 54.48452 | 28.80113 | 34860 ft | 483 kts | 66° |
| 2026-05-05 21:05 | 54.51275 | 28.90613 | 34855 ft | 483 kts | 64° |
| 2026-05-05 21:05 | 54.54262 | 29.00904 | 34853 ft | 483 kts | 63° |
| 2026-05-05 21:06 | 54.57273 | 29.11303 | 34851 ft | 483 kts | 64° |
| 2026-05-05 21:06 | 54.60199 | 29.21701 | 34846 ft | 484 kts | 64° |
| 2026-05-05 21:07 | 54.63089 | 29.32137 | 34844 ft | 484 kts | 64° |
| 2026-05-05 21:07 | 54.65983 | 29.42645 | 34842 ft | 484 kts | 65° |
| 2026-05-05 21:08 | 54.69488 | 29.52553 | 34837 ft | 483 kts | 51° |
| 2026-05-05 21:08 | 54.73612 | 29.61670 | 34841 ft | 483 kts | 51° |
| 2026-05-05 21:09 | 54.77736 | 29.70894 | 34839 ft | 483 kts | 51° |
| 2026-05-05 21:09 | 54.81826 | 29.80099 | 34838 ft | 484 kts | 52° |
| 2026-05-05 21:10 | 54.85251 | 29.87819 | 34835 ft | 484 kts | 52° |
| 2026-05-05 21:10 | 54.89363 | 29.97102 | 34835 ft | 484 kts | 52° |
| 2026-05-05 21:11 | 54.93441 | 30.06348 | 34832 ft | 484 kts | 52° |
| 2026-05-05 21:11 | 54.97543 | 30.15680 | 34833 ft | 484 kts | 52° |
| 2026-05-05 21:12 | 55.01607 | 30.24970 | 34834 ft | 484 kts | 52° |
| 2026-05-05 21:12 | 55.05699 | 30.34357 | 34830 ft | 485 kts | 52° |
| 2026-05-05 21:13 | 55.09761 | 30.43710 | 34832 ft | 485 kts | 52° |
| 2026-05-05 21:13 | 55.13850 | 30.53153 | 34833 ft | 486 kts | 52° |
| 2026-05-05 21:14 | 55.17898 | 30.62547 | 34831 ft | 487 kts | 52° |
| 2026-05-05 21:14 | 55.21986 | 30.72048 | 34833 ft | 487 kts | 52° |
| 2026-05-05 21:15 | 55.26039 | 30.81536 | 34832 ft | 488 kts | 54° |
| 2026-05-05 21:15 | 55.29151 | 30.92127 | 34832 ft | 489 kts | 71° |
| 2026-05-05 21:16 | 55.31306 | 31.03473 | 34830 ft | 490 kts | 72° |
| 2026-05-05 21:16 | 55.33466 | 31.14767 | 34836 ft | 490 kts | 71° |
| 2026-05-05 21:17 | 55.35636 | 31.26174 | 34837 ft | 491 kts | 72° |
| 2026-05-05 21:17 | 55.37771 | 31.37521 | 34843 ft | 491 kts | 72° |
| 2026-05-05 21:18 | 55.39757 | 31.49065 | 34848 ft | 491 kts | 75° |
| 2026-05-05 21:18 | 55.41508 | 31.60631 | 34850 ft | 491 kts | 76° |
| 2026-05-05 21:19 | 55.43243 | 31.72294 | 34854 ft | 491 kts | 75° |
| 2026-05-05 21:19 | 55.45018 | 31.83866 | 34857 ft | 491 kts | 75° |
| 2026-05-05 21:20 | 55.46825 | 31.95527 | 34858 ft | 491 kts | 75° |
| 2026-05-05 21:20 | 55.48602 | 32.07103 | 34857 ft | 491 kts | 75° |
| 2026-05-05 21:21 | 55.50373 | 32.18784 | 34865 ft | 491 kts | 75° |
| 2026-05-05 21:21 | 55.52116 | 32.30372 | 34864 ft | 491 kts | 75° |
| 2026-05-05 21:22 | 55.53854 | 32.42059 | 34866 ft | 491 kts | 75° |
| 2026-05-05 21:22 | 55.55575 | 32.53716 | 34861 ft | 491 kts | 75° |
| 2026-05-05 21:23 | 55.57298 | 32.65426 | 34863 ft | 491 kts | 75° |
| 2026-05-05 21:23 | 55.59007 | 32.77127 | 34863 ft | 491 kts | 75° |
| 2026-05-05 21:24 | 55.60696 | 32.88779 | 34865 ft | 491 kts | 75° |
| 2026-05-05 21:24 | 55.62378 | 33.00524 | 34865 ft | 491 kts | 76° |
| 2026-05-05 21:25 | 55.64041 | 33.12206 | 34865 ft | 491 kts | 76° |
| 2026-05-05 21:25 | 55.65691 | 33.23884 | 34863 ft | 491 kts | 76° |
| 2026-05-05 21:26 | 55.67349 | 33.35646 | 34865 ft | 490 kts | 76° |
| 2026-05-05 21:26 | 55.68986 | 33.47339 | 34865 ft | 490 kts | 76° |
| 2026-05-05 21:27 | 55.70618 | 33.59080 | 34864 ft | 490 kts | 76° |
| 2026-05-05 21:27 | 55.72226 | 33.70774 | 34861 ft | 490 kts | 76° |
| 2026-05-05 21:28 | 55.73829 | 33.82560 | 34863 ft | 490 kts | 76° |
| 2026-05-05 21:28 | 55.75410 | 33.94333 | 34857 ft | 489 kts | 76° |
| 2026-05-05 21:29 | 55.76978 | 34.06050 | 34862 ft | 489 kts | 76° |
| 2026-05-05 21:29 | 55.78554 | 34.17830 | 34858 ft | 489 kts | 76° |
| 2026-05-05 21:30 | 55.80105 | 34.29564 | 34853 ft | 489 kts | 76° |
| 2026-05-05 21:30 | 55.81654 | 34.41360 | 34857 ft | 489 kts | 76° |
| 2026-05-05 21:31 | 55.83183 | 34.53107 | 34853 ft | 489 kts | 77° |
| 2026-05-05 21:31 | 55.84704 | 34.64916 | 34854 ft | 489 kts | 77° |
| 2026-05-05 21:32 | 55.86208 | 34.76719 | 34854 ft | 489 kts | 77° |
| 2026-05-05 21:32 | 55.87690 | 34.88471 | 34855 ft | 489 kts | 77° |
| 2026-05-05 21:33 | 55.89176 | 35.00309 | 34856 ft | 488 kts | 77° |
| 2026-05-05 21:33 | 55.90658 | 35.12133 | 34281 ft | 489 kts | 77° |
| 2026-05-05 21:34 | 55.91394 | 35.18048 | 33127 ft | 498 kts | 77° |
| 2026-05-05 21:34 | 55.92144 | 35.24105 | 32123 ft | 501 kts | 77° |
| 2026-05-05 21:34 | 55.92896 | 35.30220 | 31036 ft | 506 kts | 77° |
| 2026-05-05 21:34 | 55.93649 | 35.36388 | 30006 ft | 510 kts | 77° |
| 2026-05-05 21:35 | 55.94391 | 35.42484 | 29049 ft | 508 kts | 77° |
| 2026-05-05 21:35 | 55.95142 | 35.48670 | 27885 ft | 510 kts | 77° |
| 2026-05-05 21:35 | 55.95893 | 35.54893 | 26689 ft | 513 kts | 77° |
| 2026-05-05 21:35 | 55.96633 | 35.61070 | 25659 ft | 513 kts | 78° |
| 2026-05-05 21:36 | 55.97374 | 35.67290 | 24670 ft | 511 kts | 78° |
| 2026-05-05 21:36 | 55.98114 | 35.73514 | 23757 ft | 508 kts | 78° |
| 2026-05-05 21:36 | 55.98845 | 35.79663 | 22844 ft | 503 kts | 78° |
| 2026-05-05 21:36 | 55.99555 | 35.85683 | 21984 ft | 498 kts | 78° |
| 2026-05-05 21:37 | 56.00260 | 35.91717 | 21172 ft | 492 kts | 78° |
| 2026-05-05 21:37 | 56.00953 | 35.97671 | 20397 ft | 487 kts | 78° |
| 2026-05-05 21:37 | 56.01639 | 36.03575 | 19653 ft | 481 kts | 78° |
| 2026-05-05 21:37 | 56.02308 | 36.09354 | 18951 ft | 476 kts | 78° |
| 2026-05-05 21:38 | 56.02974 | 36.15132 | 18250 ft | 472 kts | 78° |
| 2026-05-05 21:38 | 56.03632 | 36.20857 | 17493 ft | 467 kts | 79° |
| 2026-05-05 21:38 | 56.04279 | 36.26537 | 16740 ft | 462 kts | 79° |
| 2026-05-05 21:38 | 56.04915 | 36.32149 | 16025 ft | 458 kts | 79° |
| 2026-05-05 21:39 | 56.05536 | 36.37655 | 15280 ft | 455 kts | 79° |
| 2026-05-05 21:39 | 56.06157 | 36.43185 | 14645 ft | 449 kts | 79° |
| 2026-05-05 21:39 | 56.06770 | 36.48654 | 13976 ft | 445 kts | 79° |
| 2026-05-05 21:39 | 56.07376 | 36.54063 | 13282 ft | 441 kts | 79° |
| 2026-05-05 21:40 | 56.07967 | 36.59350 | 12611 ft | 436 kts | 79° |
| 2026-05-05 21:40 | 56.08559 | 36.64648 | 11917 ft | 431 kts | 79° |
| 2026-05-05 21:40 | 56.09144 | 36.69923 | 11183 ft | 428 kts | 79° |
| 2026-05-05 21:40 | 56.09716 | 36.75132 | 10747 ft | 418 kts | 79° |
| 2026-05-05 21:41 | 56.10256 | 36.80069 | 10622 ft | 400 kts | 79° |
| 2026-05-05 21:41 | 56.10779 | 36.84863 | 10500 ft | 384 kts | 80° |
| 2026-05-05 21:41 | 56.11281 | 36.89476 | 10374 ft | 369 kts | 80° |
| 2026-05-05 21:41 | 56.11763 | 36.93924 | 10252 ft | 356 kts | 80° |
| 2026-05-05 21:42 | 56.12224 | 36.98204 | 10129 ft | 344 kts | 80° |
| 2026-05-05 21:42 | 56.12662 | 37.02307 | 10011 ft | 334 kts | 80° |
| 2026-05-05 21:42 | 56.13094 | 37.06358 | 9778 ft | 328 kts | 80° |
| 2026-05-05 21:42 | 56.13524 | 37.10397 | 9312 ft | 330 kts | 80° |
| 2026-05-05 21:43 | 56.13950 | 37.14406 | 9002 ft | 325 kts | 80° |
| 2026-05-05 21:43 | 56.14373 | 37.18384 | 8617 ft | 324 kts | 80° |
| 2026-05-05 21:43 | 56.14792 | 37.22342 | 8253 ft | 321 kts | 80° |
| 2026-05-05 21:43 | 56.15203 | 37.26251 | 8015 ft | 314 kts | 80° |
| 2026-05-05 21:44 | 56.15598 | 37.30006 | 7885 ft | 303 kts | 80° |
| 2026-05-05 21:44 | 56.15985 | 37.33670 | 7758 ft | 292 kts | 79° |
| 2026-05-05 21:44 | 56.16435 | 37.37181 | 7565 ft | 285 kts | 76° |
| 2026-05-05 21:44 | 56.16940 | 37.40565 | 7270 ft | 282 kts | 75° |
| 2026-05-05 21:45 | 56.17469 | 37.43952 | 6957 ft | 280 kts | 75° |
| 2026-05-05 21:45 | 56.17993 | 37.47301 | 6632 ft | 278 kts | 75° |
| 2026-05-05 21:45 | 56.18510 | 37.50646 | 6305 ft | 276 kts | 75° |
| 2026-05-05 21:45 | 56.19007 | 37.53920 | 5981 ft | 274 kts | 77° |
| 2026-05-05 21:46 | 56.19134 | 37.57286 | 5660 ft | 268 kts | 101° |
| 2026-05-05 21:46 | 56.18569 | 37.60412 | 5333 ft | 260 kts | 124° |
| 2026-05-05 21:46 | 56.17471 | 37.62891 | 5017 ft | 251 kts | 140° |
| 2026-05-05 21:46 | 56.16245 | 37.65121 | 4712 ft | 250 kts | 139° |
| 2026-05-05 21:47 | 56.15056 | 37.67302 | 4554 ft | 245 kts | 139° |
| 2026-05-05 21:47 | 56.13866 | 37.69488 | 4419 ft | 245 kts | 139° |
| 2026-05-05 21:47 | 56.12682 | 37.71663 | 4302 ft | 239 kts | 139° |
| 2026-05-05 21:47 | 56.11537 | 37.73766 | 4197 ft | 233 kts | 139° |
| 2026-05-05 21:48 | 56.10395 | 37.75809 | 4087 ft | 230 kts | 144° |
| 2026-05-05 21:48 | 56.08999 | 37.77015 | 3980 ft | 220 kts | 175° |
| 2026-05-05 21:48 | 56.07533 | 37.76834 | 3810 ft | 211 kts | 201° |
| 2026-05-05 21:48 | 56.06152 | 37.76030 | 3643 ft | 206 kts | 201° |
| 2026-05-05 21:49 | 56.04801 | 37.75250 | 3479 ft | 201 kts | 201° |
| 2026-05-05 21:49 | 56.03491 | 37.74500 | 3326 ft | 193 kts | 201° |
| 2026-05-05 21:49 | 56.02349 | 37.73512 | 3166 ft | 174 kts | 223° |
| 2026-05-05 21:49 | 56.01665 | 37.71908 | 3026 ft | 158 kts | 247° |
| 2026-05-05 21:50 | 56.01357 | 37.70102 | 2914 ft | 148 kts | 256° |
| 2026-05-05 21:50 | 56.01106 | 37.68379 | 2813 ft | 140 kts | 256° |
| 2026-05-05 21:50 | 56.00863 | 37.66719 | 2697 ft | 137 kts | 256° |
| 2026-05-05 21:50 | 56.00625 | 37.65088 | 2604 ft | 135 kts | 256° |
| 2026-05-05 21:51 | 56.00390 | 37.63488 | 2546 ft | 134 kts | 256° |
| 2026-05-05 21:51 | 56.00152 | 37.61870 | 2494 ft | 135 kts | 256° |
| 2026-05-05 21:51 | 55.99914 | 37.60247 | 2381 ft | 135 kts | 256° |
| 2026-05-05 21:51 | 55.99675 | 37.58624 | 2229 ft | 135 kts | 256° |
| 2026-05-05 21:52 | 55.99195 | 37.55373 | 1877 ft | 135 kts | 255° |
| 2026-05-05 21:52 | 55.98958 | 37.53762 | 1713 ft | 135 kts | 255° |
| 2026-05-05 21:52 | 55.98716 | 37.52129 | 1532 ft | 136 kts | 255° |
| 2026-05-05 21:53 | 55.98473 | 37.50487 | 1354 ft | 137 kts | 255° |
| 2026-05-05 21:53 | 55.98228 | 37.48831 | 1174 ft | 138 kts | 255° |
| 2026-05-05 21:53 | 55.97984 | 37.47188 | 996 ft | 139 kts | 255° |
| 2026-05-05 21:53 | 55.97736 | 37.45516 | 813 ft | 139 kts | 256° |
| 2026-05-05 21:54 | 55.97487 | 37.43841 | 644 ft | 137 kts | 255° |
| 2026-05-05 21:54 | 55.97277 | 37.42424 | 641 ft | 96 kts | 255° |
| 2026-05-05 21:54 | 55.97148 | 37.41568 | 639 ft | 47 kts | 255° |
| 2026-05-05 21:54 | 55.97091 | 37.41180 | 640 ft | 30 kts | 255° |
| 2026-05-05 21:55 | 55.97040 | 37.40814 | 644 ft | 31 kts | 258° |
| 2026-05-05 21:55 | 55.96984 | 37.40447 | 644 ft | 31 kts | 254° |
| 2026-05-05 21:55 | 55.96938 | 37.40116 | 641 ft | 17 kts | 270° |
| 2026-05-05 21:55 | 55.96982 | 37.40047 | 640 ft | 9 kts | 340° |
| 2026-05-05 21:56 | 55.97052 | 37.40013 | 642 ft | 11 kts | 345° |
| 2026-05-05 21:56 | 55.97129 | 37.39976 | 639 ft | 14 kts | 345° |
| 2026-05-05 21:56 | 55.97232 | 37.39925 | 638 ft | 17 kts | 344° |
| 2026-05-05 21:56 | 55.97337 | 37.39914 | 639 ft | 9 kts | 37° |
| 2026-05-05 21:57 | 55.97358 | 37.40004 | 639 ft | 12 kts | 74° |
| 2026-05-05 21:57 | 55.97381 | 37.40151 | 639 ft | 12 kts | 75° |
| 2026-05-05 21:57 | 55.97402 | 37.40293 | 647 ft | 14 kts | 75° |
| 2026-05-05 21:57 | 55.97428 | 37.40463 | 639 ft | 14 kts | 75° |
| 2026-05-05 21:58 | 55.97454 | 37.40641 | 639 ft | 15 kts | 75° |
| 2026-05-05 21:58 | 55.97482 | 37.40833 | 641 ft | 17 kts | 75° |
| 2026-05-05 21:58 | 55.97514 | 37.41043 | 639 ft | 16 kts | 75° |
| 2026-05-05 21:58 | 55.97555 | 37.41151 | 639 ft | 10 kts | 12° |
| 2026-05-05 21:59 | 55.97615 | 37.41164 | 643 ft | 8 kts | 36° |
| 2026-05-05 21:59 | 55.97635 | 37.41253 | 644 ft | 7 kts | 76° |
| 2026-05-05 21:59 | 55.97647 | 37.41333 | 641 ft | 6 kts | 75° |
| 2026-05-05 21:59 | 55.97660 | 37.41418 | 640 ft | 9 kts | 75° |
| 2026-05-05 22:00 | 55.97697 | 37.41470 | 639 ft | 7 kts | 359° |
| 2026-05-05 22:00 | 55.97738 | 37.41455 | 639 ft | 5 kts | 346° |
| 2026-05-05 22:00 | 55.97775 | 37.41437 | 639 ft | 5 kts | 343° |
| 2026-05-05 22:00 | 55.97793 | 37.41382 | 644 ft | 5 kts | 273° |
| 2026-05-05 22:01 | 55.97786 | 37.41328 | 646 ft | 4 kts | 256° |
| 2026-05-05 22:01 | 55.97784 | 37.41313 | 645 ft | 0 kts | 256° |